Time;durP1;ratioP1;P1;durP2;ratioP2;P2;SDS_P1;SDS_P2;PMS_P1;PMS_P2;Temp;Humidity;BMP_temperature;BMP_pressure;BME280_temperature;BME280_humidity;BME280_pressure;Samples;Min_cycle;Max_cycle;Signal;HPM_P1;HPM_P2
2022/03/19 00:02:20;;;;;;;;;;;;;;;;;;5064872;28;19928;-92
2022/03/19 00:04:47;;;;;;;;;;;;;;;;;;5063345;28;19921;-92
2022/03/19 00:07:13;;;;;;;;;;;;;;;;;;5063574;28;19943;-93
2022/03/19 00:09:40;;;;;;;;;;;;;;;;;;5065693;28;19920;-92
2022/03/19 00:12:06;;;;;;;;;;;;;;;;;;5064046;28;20008;-91
2022/03/19 00:14:32;;;;;;;;;;;;;;;;;;5062752;28;19978;-92
2022/03/19 00:16:59;;;;;;;;;;;;;;;;;;5063427;28;19927;-90
2022/03/19 00:19:25;;;;;;;;;;;;;;;;;;5063760;28;19921;-91
2022/03/19 00:21:51;;;;;;;;;;;;;;;;;;5063971;28;19921;-91
2022/03/19 00:24:17;;;;;;;;;;;;;;;;;;5065761;28;19943;-91
2022/03/19 00:26:43;;;;;;;;;;;;;;;;;;5064451;28;19921;-91
2022/03/19 00:29:10;;;;;;;;;;;;;;;;;;5063765;28;19920;-91
2022/03/19 00:31:36;;;;;;;;;;;;;;;;;;5063740;28;19950;-91
2022/03/19 00:34:02;;;;;;;;;;;;;;;;;;5062162;28;19943;-91
2022/03/19 00:36:28;;;;;;;;;;;;;;;;;;5062778;28;19921;-92
2022/03/19 00:38:55;;;;;;;;;;;;;;;;;;5064649;28;19960;-92
2022/03/19 00:41:21;;;;;;;;;;;;;;;;;;5064860;28;19943;-91
2022/03/19 00:43:47;;;;;;;;;;;;;;;;;;5062386;28;19920;-92
2022/03/19 00:46:15;;;;;;;;;;;;;;;;;;5062885;28;19920;-91
2022/03/19 00:48:41;;;;;;;;;;;;;;;;;;5060960;28;19920;-90
2022/03/19 00:51:07;;;;;;;;;;;;;;;;;;5063881;28;19920;-91
2022/03/19 00:53:34;;;;;;;;;;;;;;;;;;5065206;28;19951;-90
2022/03/19 00:56:00;;;;;;;;;;;;;;;;;;5065213;28;19920;-90
2022/03/19 00:58:26;;;;;;;;;;;;;;;;;;5062712;28;19921;-90
2022/03/19 01:00:52;;;;;;;;;;;;;;;;;;5063548;28;19970;-90
2022/03/19 01:03:18;;;;;;;;;;;;;;;;;;5064533;28;19920;-91
2022/03/19 01:05:45;;;;;;;;;;;;;;;;;;5064526;28;19970;-91
2022/03/19 01:08:11;;;;;;;;;;;;;;;;;;5063648;28;19921;-92
2022/03/19 01:10:37;;;;;;;;;;;;;;;;;;5064396;28;19943;-93
2022/03/19 01:13:03;;;;;;;;;;;;;;;;;;5077298;28;19939;-92
2022/03/19 01:15:30;;;;;;;;;;;;;;;;;;5090825;28;19921;-92
2022/03/19 01:17:56;;;;;;;;;;;;;;;;;;5056908;28;19921;-91
2022/03/19 01:20:22;;;;;;;;;;;;;;;;;;5043039;28;19947;-91
2022/03/19 01:22:48;;;;;;;;;;;;;;;;;;5051562;28;19943;-92
2022/03/19 01:25:15;;;;;;;;;;;;;;;;;;5064251;28;19921;-93
2022/03/19 01:27:41;;;;;;;;;;;;;;;;;;5063960;28;19943;-92
2022/03/19 01:30:07;;;;;;;;;;;;;;;;;;5064575;28;19920;-92
2022/03/19 01:32:34;;;;;;;;;;;;;;;;;;5062566;28;19921;-92
2022/03/19 01:35:00;;;;;;;;;;;;;;;;;;5064250;28;19927;-92
2022/03/19 01:37:27;;;;;;;;;;;;;;;;;;5064272;28;19925;-93
2022/03/19 01:39:55;;;;;;;;;;;;;;;;;;5062329;28;19986;-92
2022/03/19 01:42:21;;;;;;;;;;;;;;;;;;5064007;28;19971;-92
2022/03/19 01:44:47;;;;;;;;;;;;;;;;;;5063828;28;19943;-92
2022/03/19 01:47:13;;;;;;;;;;;;;;;;;;5062664;28;19920;-91
2022/03/19 01:49:40;;;;;;;;;;;;;;;;;;5059579;28;19943;-92
2022/03/19 01:52:06;;;;;;;;;;;;;;;;;;5061746;28;19943;-91
2022/03/19 01:54:32;;;;;;;;;;;;;;;;;;5063641;28;19931;-93
2022/03/19 01:56:58;;;;;;;;;;;;;;;;;;5063198;28;19947;-93
2022/03/19 01:59:26;;;;;;;;;;;;;;;;;;5062926;28;19921;-93
2022/03/19 02:01:52;;;;;;;;;;;;;;;;;;5062735;28;19960;-93
2022/03/19 02:04:19;;;;;;;;;;;;;;;;;;5061396;28;19943;-93
2022/03/19 02:06:45;;;;;;;;;;;;;;;;;;5061397;28;19929;-93
2022/03/19 02:09:12;;;;;;;;;;;;;;;;;;5063527;28;19950;-92
2022/03/19 02:11:38;;;;;;;;;;;;;;;;;;5062920;28;19974;-92
2022/03/19 02:14:04;;;;;;;;;;;;;;;;;;5048999;28;19921;-92
2022/03/19 02:16:30;;;;;;;;;;;;;;;;;;5044047;28;19975;-91
2022/03/19 02:18:57;;;;;;;;;;;;;;;;;;5061031;28;19951;-91
2022/03/19 02:21:23;;;;;;;;;;;;;;;;;;5060570;28;19920;-92
2022/03/19 02:26:33;;;;;;;;;;;;;;;;;;5044976;28;19920;-90
2022/03/19 02:28:59;;;;;;;;;;;;;;;;;;5051439;28;19967;-91
2022/03/19 02:31:25;;;;;;;;;;;;;;;;;;5043861;28;19929;-92
2022/03/19 02:33:52;;;;;;;;;;;;;;;;;;5063041;28;19924;-92
2022/03/19 02:36:20;;;;;;;;;;;;;;;;;;5063477;28;19921;-93
2022/03/19 02:38:51;;;;;;;;;;;;;;;;;;5063434;28;20019;-92
2022/03/19 02:41:17;;;;;;;;;;;;;;;;;;5061810;28;19921;-92
2022/03/19 02:43:48;;;;;;;;;;;;;;;;;;5062826;28;19972;-92
2022/03/19 02:46:14;;;;;;;;;;;;;;;;;;5063089;28;19951;-93
2022/03/19 02:48:41;;;;;;;;;;;;;;;;;;5062821;28;19921;-92
2022/03/19 02:51:08;;;;;;;;;;;;;;;;;;5064181;28;19920;-93
2022/03/19 02:53:34;;;;;;;;;;;;;;;;;;5072954;28;19955;-93
2022/03/19 02:56:00;;;;;;;;;;;;;;;;;;5079655;28;19948;-93
2022/03/19 02:58:27;;;;;;;;;;;;;;;;;;5067422;28;19920;-93
2022/03/19 03:00:53;;;;;;;;;;;;;;;;;;5066419;28;19924;-93
2022/03/19 03:03:19;;;;;;;;;;;;;;;;;;5067924;28;19980;-92
2022/03/19 03:05:46;;;;;;;;;;;;;;;;;;5046770;28;19928;-92
2022/03/19 03:08:12;;;;;;;;;;;;;;;;;;5052051;28;19921;-92
2022/03/19 03:10:38;;;;;;;;;;;;;;;;;;5066383;28;19920;-91
2022/03/19 03:13:05;;;;;;;;;;;;;;;;;;5066601;28;19943;-93
2022/03/19 03:15:32;;;;;;;;;;;;;;;;;;5066226;28;19920;-92
2022/03/19 03:17:58;;;;;;;;;;;;;;;;;;5065370;28;19991;-93
2022/03/19 03:20:24;;;;;;;;;;;;;;;;;;5064526;28;19921;-93
2022/03/19 03:22:51;;;;;;;;;;;;;;;;;;5063933;28;19921;-92
2022/03/19 03:25:17;;;;;;;;;;;;;;;;;;5063874;28;19921;-93
2022/03/19 03:27:44;;;;;;;;;;;;;;;;;;5064285;28;19948;-93
2022/03/19 03:30:10;;;;;;;;;;;;;;;;;;5065283;28;19920;-92
2022/03/19 03:32:36;;;;;;;;;;;;;;;;;;5072348;28;19920;-93
2022/03/19 03:35:02;;;;;;;;;;;;;;;;;;5067196;28;19921;-91
2022/03/19 03:37:29;;;;;;;;;;;;;;;;;;5066621;28;19921;-91
2022/03/19 03:39:55;;;;;;;;;;;;;;;;;;5064854;28;19928;-91
2022/03/19 03:42:21;;;;;;;;;;;;;;;;;;5065399;28;20001;-91
2022/03/19 03:44:47;;;;;;;;;;;;;;;;;;5066375;28;19925;-91
2022/03/19 03:47:14;;;;;;;;;;;;;;;;;;5064738;28;19962;-91
2022/03/19 03:49:41;;;;;;;;;;;;;;;;;;5064417;28;19943;-91
2022/03/19 03:52:08;;;;;;;;;;;;;;;;;;5065146;28;19921;-92
2022/03/19 03:54:34;;;;;;;;;;;;;;;;;;5064732;28;19975;-91
2022/03/19 03:57:00;;;;;;;;;;;;;;;;;;5064621;28;19950;-92
2022/03/19 03:59:26;;;;;;;;;;;;;;;;;;5063535;28;20057;-92
2022/03/19 04:01:53;;;;;;;;;;;;;;;;;;5063969;28;20324;-92
2022/03/19 04:04:19;;;;;;;;;;;;;;;;;;5064435;28;19920;-93
2022/03/19 04:06:45;;;;;;;;;;;;;;;;;;5065869;28;19924;-94
2022/03/19 04:09:12;;;;;;;;;;;;;;;;;;5064993;28;19921;-94
2022/03/19 04:11:38;;;;;;;;;;;;;;;;;;5065092;28;19935;-93
2022/03/19 04:14:04;;;;;;;;;;;;;;;;;;5064430;28;19947;-93
2022/03/19 04:16:31;;;;;;;;;;;;;;;;;;5064309;28;19952;-94
2022/03/19 04:18:57;;;;;;;;;;;;;;;;;;5064740;28;20011;-92
2022/03/19 04:21:23;;;;;;;;;;;;;;;;;;5065407;28;19943;-92
2022/03/19 04:23:49;;;;;;;;;;;;;;;;;;5064852;28;19955;-93
2022/03/19 04:26:16;;;;;;;;;;;;;;;;;;5064685;28;19943;-94
2022/03/19 04:28:42;;;;;;;;;;;;;;;;;;5063831;28;19925;-94
2022/03/19 04:31:08;;;;;;;;;;;;;;;;;;5064035;28;19920;-92
2022/03/19 04:33:34;;;;;;;;;;;;;;;;;;5073527;28;19920;-93
2022/03/19 04:38:45;;;;;;;;;;;;;;;;;;5064136;28;19923;-92
2022/03/19 04:41:11;;;;;;;;;;;;;;;;;;5064244;28;19920;-92
2022/03/19 04:43:37;;;;;;;;;;;;;;;;;;5063620;28;19952;-93
2022/03/19 04:46:03;;;;;;;;;;;;;;;;;;5063564;28;19943;-93
2022/03/19 04:48:30;;;;;;;;;;;;;;;;;;5064188;28;19920;-92
2022/03/19 04:50:56;;;;;;;;;;;;;;;;;;5064240;28;19963;-92
2022/03/19 04:53:22;;;;;;;;;;;;;;;;;;5063320;28;19975;-92
2022/03/19 04:55:49;;;;;;;;;;;;;;;;;;5064835;28;19920;-92
2022/03/19 04:58:15;;;;;;;;;;;;;;;;;;5064272;28;19984;-92
2022/03/19 05:00:42;;;;;;;;;;;;;;;;;;5064220;28;19982;-94
2022/03/19 05:03:09;;;;;;;;;;;;;;;;;;5063859;28;19928;-93
2022/03/19 05:05:35;;;;;;;;;;;;;;;;;;5063494;28;19980;-93
2022/03/19 05:08:03;;;;;;;;;;;;;;;;;;5064387;28;19924;-93
2022/03/19 05:13:13;;;;;;;;;;;;;;;;;;5062670;28;19984;-91
2022/03/19 05:15:39;;;;;;;;;;;;;;;;;;5061960;28;19921;-92
2022/03/19 05:18:06;;;;;;;;;;;;;;;;;;5063739;28;19921;-92
2022/03/19 05:20:32;;;;;;;;;;;;;;;;;;5063810;28;19921;-91
2022/03/19 05:22:59;;;;;;;;;;;;;;;;;;5070449;28;19964;-93
2022/03/19 05:25:25;;;;;;;;;;;;;;;;;;5067729;28;20016;-94
2022/03/19 05:27:52;;;;;;;;;;;;;;;;;;5063188;28;19921;-94
2022/03/19 05:30:18;;;;;;;;;;;;;;;;;;5061443;28;19920;-94
2022/03/19 05:32:44;;;;;;;;;;;;;;;;;;5062862;28;19925;-93
2022/03/19 05:35:11;;;;;;;;;;;;;;;;;;5063743;28;19920;-94
2022/03/19 05:37:37;;;;;;;;;;;;;;;;;;5063799;28;19943;-94
2022/03/19 05:40:03;;;;;;;;;;;;;;;;;;5063524;28;19920;-94
2022/03/19 05:42:29;;;;;;;;;;;;;;;;;;5063418;28;19921;-94
2022/03/19 05:44:56;;;;;;;;;;;;;;;;;;5062467;28;19963;-93
2022/03/19 05:47:22;;;;;;;;;;;;;;;;;;5068764;28;19927;-94
2022/03/19 05:49:48;;;;;;;;;;;;;;;;;;5064332;28;19921;-94
2022/03/19 05:52:16;;;;;;;;;;;;;;;;;;5054405;28;19951;-95
2022/03/19 05:54:42;;;;;;;;;;;;;;;;;;5054507;28;19927;-93
2022/03/19 05:57:08;;;;;;;;;;;;;;;;;;5051825;28;19929;-94
2022/03/19 05:59:35;;;;;;;;;;;;;;;;;;5052218;28;20023;-93
2022/03/19 06:02:01;;;;;;;;;;;;;;;;;;5065820;28;19924;-88
2022/03/19 06:04:28;;;;;;;;;;;;;;;;;;5071969;28;20025;-88
2022/03/19 06:06:54;;;;;;;;;;;;;;;;;;5044027;28;19992;-93
2022/03/19 06:09:20;;;;;;;;;;;;;;;;;;5057253;28;19924;-94
2022/03/19 06:11:46;;;;;;;;;;;;;;;;;;5069517;28;19963;-94
2022/03/19 06:14:13;;;;;;;;;;;;;;;;;;5073042;28;19921;-94
2022/03/19 06:16:39;;;;;;;;;;;;;;;;;;5061122;28;19987;-95
2022/03/19 06:19:05;;;;;;;;;;;;;;;;;;5062307;28;19966;-94
2022/03/19 06:21:31;;;;;;;;;;;;;;;;;;5061993;28;19921;-94
2022/03/19 06:23:57;;;;;;;;;;;;;;;;;;5061584;28;19925;-94
2022/03/19 06:26:24;;;;;;;;;;;;;;;;;;5061588;28;19924;-92
2022/03/19 06:28:50;;;;;;;;;;;;;;;;;;5062163;28;19920;-91
2022/03/19 06:31:16;;;;;;;;;;;;;;;;;;5062072;28;20277;-92
2022/03/19 06:33:42;;;;;;;;;;;;;;;;;;5051494;28;20346;-91
2022/03/19 06:38:53;;;;;;;;;;;;;;;;;;5059763;28;20537;-93
2022/03/19 06:41:21;;;;;;;;;;;;;;;;;;5057889;28;20754;-93
2022/03/19 06:43:48;;;;;;;;;;;;;;;;;;5055523;28;20364;-92
2022/03/19 06:46:14;;;;;;;;;;;;;;;;;;5057980;28;20339;-92
2022/03/19 06:48:40;;;;;;;;;;;;;;;;;;5063166;28;20202;-92
2022/03/19 06:51:06;;;;;;;;;;;;;;;;;;5061826;28;19925;-93
2022/03/19 06:53:33;;;;;;;;;;;;;;;;;;5063625;28;19950;-93
2022/03/19 06:55:59;;;;;;;;;;;;;;;;;;5057023;28;19921;-94
2022/03/19 06:58:25;;;;;;;;;;;;;;;;;;5060169;28;19924;-92
2022/03/19 07:00:52;;;;;;;;;;;;;;;;;;5053249;28;19920;-93
2022/03/19 07:03:18;;;;;;;;;;;;;;;;;;5060505;28;19928;-92
2022/03/19 07:05:44;;;;;;;;;;;;;;;;;;5062343;28;19921;-94
2022/03/19 07:08:10;;;;;;;;;;;;;;;;;;5061140;28;19920;-94
2022/03/19 07:10:37;;;;;;;;;;;;;;;;;;5060191;28;19920;-94
2022/03/19 07:13:03;;;;;;;;;;;;;;;;;;5060090;28;19943;-94
2022/03/19 07:15:29;;;;;;;;;;;;;;;;;;5058629;28;19921;-93
2022/03/19 07:17:55;;;;;;;;;;;;;;;;;;5056842;28;19925;-94
2022/03/19 07:20:22;;;;;;;;;;;;;;;;;;5060620;28;19943;-94
2022/03/19 07:22:48;;;;;;;;;;;;;;;;;;5060358;28;19943;-92
2022/03/19 07:25:14;;;;;;;;;;;;;;;;;;5061233;28;19943;-92
2022/03/19 07:27:40;;;;;;;;;;;;;;;;;;5061680;28;19921;-94
2022/03/19 07:30:07;;;;;;;;;;;;;;;;;;5054990;28;19943;-95
2022/03/19 07:32:33;;;;;;;;;;;;;;;;;;5062976;28;19920;-92
2022/03/19 07:35:00;;;;;;;;;;;;;;;;;;5060530;28;19920;-93
2022/03/19 07:37:26;;;;;;;;;;;;;;;;;;5057140;28;19925;-93
2022/03/19 07:39:52;;;;;;;;;;;;;;;;;;5046466;28;19924;-95
2022/03/19 07:42:17;;;;;;;;;;;;;;;;;;5056789;28;19921;-91
2022/03/19 07:44:43;;;;;;;;;;;;;;;;;;5063486;28;19943;-94
2022/03/19 07:47:10;;;;;;;;;;;;;;;;;;5063492;28;20309;-94
2022/03/19 07:49:36;;;;;;;;;;;;;;;;;;5063577;28;19920;-95
2022/03/19 07:52:05;;;;;;;;;;;;;;;;;;5060690;28;19948;-94
2022/03/19 07:54:31;;;;;;;;;;;;;;;;;;5073039;28;19924;-90
2022/03/19 07:56:58;;;;;;;;;;;;;;;;;;5074461;28;19967;-92
2022/03/19 07:59:24;;;;;;;;;;;;;;;;;;5064470;28;19920;-93
2022/03/19 08:01:50;;;;;;;;;;;;;;;;;;5063956;28;19925;-93
2022/03/19 08:04:16;;;;;;;;;;;;;;;;;;5064791;28;19943;-91
2022/03/19 08:06:43;;;;;;;;;;;;;;;;;;5064801;28;19943;-92
2022/03/19 08:09:09;;;;;;;;;;;;;;;;;;5063640;28;19920;-93
2022/03/19 08:11:35;;;;;;;;;;;;;;;;;;5061765;28;19924;-93
2022/03/19 08:14:01;;;;;;;;;;;;;;;;;;5063438;28;20475;-93
2022/03/19 08:16:28;;;;;;;;;;;;;;;;;;5044108;28;20384;-92
2022/03/19 08:18:54;;;;;;;;;;;;;;;;;;5074379;28;20626;-91
2022/03/19 08:21:20;;;;;;;;;;;;;;;;;;5062614;28;20450;-92
2022/03/19 08:23:47;;;;;;;;;;;;;;;;;;5060588;28;20411;-93
2022/03/19 08:26:14;;;;;;;;;;;;;;;;;;5061631;28;19971;-92
2022/03/19 08:28:40;;;;;;;;;;;;;;;;;;5061425;28;19920;-93
2022/03/19 08:31:06;;;;;;;;;;;;;;;;;;5062712;28;19967;-92
2022/03/19 08:33:32;;;;;;;;;;;;;;;;;;5063329;28;19974;-93
2022/03/19 08:35:59;;;;;;;;;;;;;;;;;;5063685;28;19921;-93
2022/03/19 08:41:09;;;;;;;;;;;;;;;;;;5062950;28;19962;-92
2022/03/19 08:43:35;;;;;;;;;;;;;;;;;;5064346;28;19921;-93
2022/03/19 08:46:01;;;;;;;;;;;;;;;;;;5063524;28;19928;-93
2022/03/19 08:48:27;;;;;;;;;;;;;;;;;;5064229;28;19975;-92
2022/03/19 08:50:53;;;;;;;;;;;;;;;;;;5064525;28;19921;-92
2022/03/19 08:53:20;;;;;;;;;;;;;;;;;;5063799;28;19962;-93
2022/03/19 08:55:47;;;;;;;;;;;;;;;;;;5063726;28;19924;-93
2022/03/19 08:58:13;;;;;;;;;;;;;;;;;;5063673;28;19968;-91
2022/03/19 09:00:41;;;;;;;;;;;;;;;;;;5063926;28;19935;-91
2022/03/19 09:03:07;;;;;;;;;;;;;;;;;;5062303;28;19964;-90
2022/03/19 09:05:33;;;;;;;;;;;;;;;;;;5062942;28;20011;-92
2022/03/19 09:07:59;;;;;;;;;;;;;;;;;;5063551;28;19997;-93
2022/03/19 09:10:26;;;;;;;;;;;;;;;;;;5063728;28;19932;-94
2022/03/19 09:12:52;;;;;;;;;;;;;;;;;;5064051;28;19971;-93
2022/03/19 09:15:18;;;;;;;;;;;;;;;;;;5063839;28;19920;-92
2022/03/19 09:17:44;;;;;;;;;;;;;;;;;;5061525;28;19986;-93
2022/03/19 09:20:11;;;;;;;;;;;;;;;;;;5063576;28;19947;-93
2022/03/19 09:22:37;;;;;;;;;;;;;;;;;;5063140;28;19976;-94
2022/03/19 09:25:04;;;;;;;;;;;;;;;;;;5063439;28;20868;-93
2022/03/19 09:27:30;;;;;;;;;;;;;;;;;;5062878;28;19920;-93
2022/03/19 09:29:58;;;;;;;;;;;;;;;;;;5061575;28;19931;-94
2022/03/19 09:32:24;;;;;;;;;;;;;;;;;;5068373;28;19927;-95
2022/03/19 09:34:52;;;;;;;;;;;;;;;;;;5069833;28;19920;-94
2022/03/19 09:37:18;;;;;;;;;;;;;;;;;;5063633;28;20273;-94
2022/03/19 09:39:44;;;;;;;;;;;;;;;;;;5069773;28;19935;-92
2022/03/19 09:42:11;;;;;;;;;;;;;;;;;;5074375;28;20298;-94
2022/03/19 09:44:37;;;;;;;;;;;;;;;;;;5063391;28;20344;-94
2022/03/19 09:47:03;;;;;;;;;;;;;;;;;;5061972;28;20004;-94
2022/03/19 09:49:31;;;;;;;;;;;;;;;;;;5063801;28;19982;-94
2022/03/19 09:51:57;;;;;;;;;;;;;;;;;;5061029;28;19981;-96
2022/03/19 09:54:23;;;;;;;;;;;;;;;;;;5061082;28;19972;-96
2022/03/19 09:56:49;;;;;;;;;;;;;;;;;;5061091;28;19924;-95
2022/03/19 09:59:16;;;;;;;;;;;;;;;;;;5062355;28;19947;-91
2022/03/19 10:01:42;;;;;;;;;;;;;;;;;;5064858;28;19920;-95
2022/03/19 10:04:08;;;;;;;;;;;;;;;;;;5082929;28;19942;-96
2022/03/19 10:09:19;;;;;;;;;;;;;;;;;;5065756;28;19980;-92
2022/03/19 10:11:45;;;;;;;;;;;;;;;;;;5063330;28;19927;-90
2022/03/19 10:14:12;;;;;;;;;;;;;;;;;;5062591;28;19982;-94
2022/03/19 10:16:38;;;;;;;;;;;;;;;;;;5062291;28;19920;-95
2022/03/19 10:19:05;;;;;;;;;;;;;;;;;;5063787;28;19920;-95
2022/03/19 10:21:31;;;;;;;;;;;;;;;;;;5063863;28;19920;-94
2022/03/19 10:23:59;;;;;;;;;;;;;;;;;;5063113;28;19920;-92
2022/03/19 10:26:25;;;;;;;;;;;;;;;;;;5060266;28;19943;-91
2022/03/19 10:28:52;;;;;;;;;;;;;;;;;;5062836;28;19920;-92
2022/03/19 10:31:18;;;;;;;;;;;;;;;;;;5062847;28;19955;-95
2022/03/19 10:33:44;;;;;;;;;;;;;;;;;;5084924;28;19920;-94
2022/03/19 10:36:10;;;;;;;;;;;;;;;;;;5077251;28;19921;-95
2022/03/19 10:38:37;;;;;;;;;;;;;;;;;;5062783;28;20023;-94
2022/03/19 10:41:03;;;;;;;;;;;;;;;;;;5061974;28;19943;-95
2022/03/19 10:43:31;;;;;;;;;;;;;;;;;;5063127;28;19921;-94
2022/03/19 10:45:57;;;;;;;;;;;;;;;;;;5058487;28;19924;-94
2022/03/19 10:48:23;;;;;;;;;;;;;;;;;;5077330;28;19927;-93
2022/03/19 10:50:49;;;;;;;;;;;;;;;;;;5081583;28;19924;-95
2022/03/19 10:53:16;;;;;;;;;;;;;;;;;;5062666;28;19920;-94
2022/03/19 10:55:42;;;;;;;;;;;;;;;;;;5064935;28;19921;-95
2022/03/19 10:58:09;;;;;;;;;;;;;;;;;;5043589;28;19945;-94
2022/03/19 11:00:35;;;;;;;;;;;;;;;;;;5042981;28;19992;-94
2022/03/19 11:03:01;;;;;;;;;;;;;;;;;;5054629;28;19944;-92
2022/03/19 11:05:28;;;;;;;;;;;;;;;;;;5063366;28;19920;-92
2022/03/19 11:07:55;;;;;;;;;;;;;;;;;;5063558;28;19921;-95
2022/03/19 11:10:21;;;;;;;;;;;;;;;;;;5064706;28;19921;-94
2022/03/19 11:12:50;;;;;;;;;;;;;;;;;;5062221;28;19950;-92
2022/03/19 11:15:16;;;;;;;;;;;;;;;;;;5066392;28;19943;-94
2022/03/19 11:17:42;;;;;;;;;;;;;;;;;;5077268;28;19920;-92
2022/03/19 11:20:09;;;;;;;;;;;;;;;;;;5065836;28;19920;-93
2022/03/19 11:22:39;;;;;;;;;;;;;;;;;;5066850;28;20276;-92
2022/03/19 11:25:06;;;;;;;;;;;;;;;;;;5068195;28;20348;-92
2022/03/19 11:27:35;;;;;;;;;;;;;;;;;;5069504;28;20378;-91
2022/03/19 11:30:01;;;;;;;;;;;;;;;;;;5070176;28;20344;-91
2022/03/19 11:32:27;;;;;;;;;;;;;;;;;;5084511;28;20373;-92
2022/03/19 11:34:57;;;;;;;;;;;;;;;;;;5085371;28;20891;-91
2022/03/19 11:37:23;;;;;;;;;;;;;;;;;;5068858;28;20347;-93
2022/03/19 11:39:49;;;;;;;;;;;;;;;;;;5068249;28;20370;-91
2022/03/19 11:42:16;;;;;;;;;;;;;;;;;;5066251;28;20367;-94
2022/03/19 11:44:42;;;;;;;;;;;;;;;;;;5048039;28;20358;-92
2022/03/19 11:47:09;;;;;;;;;;;;;;;;;;5053912;28;20877;-90
2022/03/19 11:49:36;;;;;;;;;;;;;;;;;;5064088;28;20458;-92
2022/03/19 11:52:02;;;;;;;;;;;;;;;;;;5061836;28;20381;-92
2022/03/19 11:54:28;;;;;;;;;;;;;;;;;;5045677;28;20410;-91
2022/03/19 11:56:54;;;;;;;;;;;;;;;;;;5049416;28;20367;-95
2022/03/19 11:59:21;;;;;;;;;;;;;;;;;;5055610;28;20369;-94
2022/03/19 12:01:48;;;;;;;;;;;;;;;;;;5062975;28;20395;-91
2022/03/19 12:04:14;;;;;;;;;;;;;;;;;;5063433;28;20416;-89
2022/03/19 12:06:41;;;;;;;;;;;;;;;;;;5064704;28;20336;-91
2022/03/19 12:09:07;;;;;;;;;;;;;;;;;;5063134;28;20356;-95
2022/03/19 12:11:35;;;;;;;;;;;;;;;;;;5062231;28;20380;-92
2022/03/19 12:14:01;;;;;;;;;;;;;;;;;;5063008;28;20352;-96
2022/03/19 12:16:27;;;;;;;;;;;;;;;;;;5062442;28;20352;-94
2022/03/19 12:18:55;;;;;;;;;;;;;;;;;;5083097;28;20350;-92
2022/03/19 12:21:23;;;;;;;;;;;;;;;;;;5071423;28;20352;-93
2022/03/19 12:23:49;;;;;;;;;;;;;;;;;;5065090;28;20349;-90
2022/03/19 12:26:16;;;;;;;;;;;;;;;;;;5065882;28;20406;-91
2022/03/19 12:28:43;;;;;;;;;;;;;;;;;;5066016;28;20351;-95
2022/03/19 12:31:10;;;;;;;;;;;;;;;;;;5065189;28;20386;-95
2022/03/19 12:33:38;;;;;;;;;;;;;;;;;;5065553;28;20364;-94
2022/03/19 12:36:04;;;;;;;;;;;;;;;;;;5062381;28;20386;-95
2022/03/19 12:38:33;;;;;;;;;;;;;;;;;;5065065;28;20399;-95
2022/03/19 12:43:43;;;;;;;;;;;;;;;;;;5065178;28;20335;-91
2022/03/19 12:46:09;;;;;;;;;;;;;;;;;;5063540;28;20373;-93
2022/03/19 12:48:39;;;;;;;;;;;;;;;;;;5064188;28;20357;-94
2022/03/19 12:51:05;;;;;;;;;;;;;;;;;;5065358;28;20353;-93
2022/03/19 12:53:32;;;;;;;;;;;;;;;;;;5064352;28;20515;-89
2022/03/19 12:56:01;;;;;;;;;;;;;;;;;;5065942;28;20357;-94
2022/03/19 12:58:30;;;;;;;;;;;;;;;;;;5066340;28;20436;-92
2022/03/19 13:00:56;;;;;;;;;;;;;;;;;;5064796;28;20382;-91
2022/03/19 13:03:26;;;;;;;;;;;;;;;;;;5065499;28;20299;-96
2022/03/19 13:05:52;;;;;;;;;;;;;;;;;;5066441;28;20879;-93
2022/03/19 13:08:18;;;;;;;;;;;;;;;;;;5064695;28;20735;-91
2022/03/19 13:10:49;;;;;;;;;;;;;;;;;;5064002;28;20132;-94
2022/03/19 13:13:16;;;;;;;;;;;;;;;;;;5064549;28;20306;-91
2022/03/19 13:15:42;;;;;;;;;;;;;;;;;;5064563;28;20197;-91
2022/03/19 13:18:08;;;;;;;;;;;;;;;;;;5051467;28;19921;-94
2022/03/19 13:20:34;;;;;;;;;;;;;;;;;;5046872;28;19923;-94
2022/03/19 13:23:02;;;;;;;;;;;;;;;;;;5067671;28;19954;-94
2022/03/19 13:25:29;;;;;;;;;;;;;;;;;;5069300;28;19920;-94
2022/03/19 13:27:57;;;;;;;;;;;;;;;;;;5065818;28;20740;-94
2022/03/19 13:30:24;;;;;;;;;;;;;;;;;;5067319;28;20348;-94
2022/03/19 13:32:51;;;;;;;;;;;;;;;;;;5057200;28;20375;-94
2022/03/19 13:35:21;;;;;;;;;;;;;;;;;;5045514;28;20172;-93
2022/03/19 13:37:47;;;;;;;;;;;;;;;;;;5045252;28;20134;-93
2022/03/19 13:40:19;;;;;;;;;;;;;;;;;;5065798;28;20283;-94
2022/03/19 13:42:45;;;;;;;;;;;;;;;;;;5057250;28;20836;-94
2022/03/19 13:45:11;;;;;;;;;;;;;;;;;;5063885;28;20370;-93
2022/03/19 13:47:38;;;;;;;;;;;;;;;;;;5064203;28;20348;-95
2022/03/19 13:50:05;;;;;;;;;;;;;;;;;;5065011;28;20363;-96
2022/03/19 13:52:31;;;;;;;;;;;;;;;;;;5063549;28;20371;-91
2022/03/19 13:54:57;;;;;;;;;;;;;;;;;;5061236;28;20404;-92
2022/03/19 13:57:23;;;;;;;;;;;;;;;;;;5064328;28;20450;-94
2022/03/19 13:59:50;;;;;;;;;;;;;;;;;;5063828;28;20594;-93
2022/03/19 14:02:17;;;;;;;;;;;;;;;;;;5056603;28;19925;-96
2022/03/19 14:04:43;;;;;;;;;;;;;;;;;;5062269;28;20131;-91
2022/03/19 14:07:10;;;;;;;;;;;;;;;;;;5063103;28;19965;-92
2022/03/19 14:09:36;;;;;;;;;;;;;;;;;;5064172;28;19925;-95
2022/03/19 14:12:02;;;;;;;;;;;;;;;;;;5063873;28;19928;-91
2022/03/19 14:14:28;;;;;;;;;;;;;;;;;;5065250;28;19975;-91
2022/03/19 14:16:55;;;;;;;;;;;;;;;;;;5063932;28;19928;-92
2022/03/19 14:19:22;;;;;;;;;;;;;;;;;;5063499;28;19967;-93
2022/03/19 14:21:50;;;;;;;;;;;;;;;;;;5062022;28;20277;-91
2022/03/19 14:24:16;;;;;;;;;;;;;;;;;;5060378;28;19943;-92
2022/03/19 14:26:43;;;;;;;;;;;;;;;;;;5061560;28;19978;-93
2022/03/19 14:29:09;;;;;;;;;;;;;;;;;;5062652;28;19929;-94
2022/03/19 14:31:36;;;;;;;;;;;;;;;;;;5062573;28;21037;-94
2022/03/19 14:34:02;;;;;;;;;;;;;;;;;;5062058;28;19924;-93
2022/03/19 14:36:28;;;;;;;;;;;;;;;;;;5061651;28;19959;-91
2022/03/19 14:38:55;;;;;;;;;;;;;;;;;;5046066;28;19932;-94
2022/03/19 14:41:23;;;;;;;;;;;;;;;;;;5063121;28;19924;-92
2022/03/19 14:43:50;;;;;;;;;;;;;;;;;;5063545;28;19943;-95
2022/03/19 14:46:18;;;;;;;;;;;;;;;;;;5062939;28;19944;-94
2022/03/19 14:48:44;;;;;;;;;;;;;;;;;;5069473;28;20274;-92
2022/03/19 14:51:10;;;;;;;;;;;;;;;;;;5068137;28;20128;-94
2022/03/19 14:53:38;;;;;;;;;;;;;;;;;;5068317;28;19978;-92
2022/03/19 14:56:04;;;;;;;;;;;;;;;;;;5068054;28;19968;-92
2022/03/19 14:58:30;;;;;;;;;;;;;;;;;;5061264;28;20269;-93
2022/03/19 15:00:56;;;;;;;;;;;;;;;;;;5067547;28;20279;-92
2022/03/19 15:03:23;;;;;;;;;;;;;;;;;;5066788;28;19921;-93
2022/03/19 15:05:49;;;;;;;;;;;;;;;;;;5061915;28;20339;-94
2022/03/19 15:08:15;;;;;;;;;;;;;;;;;;5067585;28;20344;-92
2022/03/19 15:10:45;;;;;;;;;;;;;;;;;;5070020;28;20411;-92
2022/03/19 15:13:12;;;;;;;;;;;;;;;;;;5077193;28;20763;-92
2022/03/19 15:15:38;;;;;;;;;;;;;;;;;;5072133;28;20128;-93
2022/03/19 15:18:04;;;;;;;;;;;;;;;;;;5064792;28;19932;-93
2022/03/19 15:20:37;;;;;;;;;;;;;;;;;;5067455;28;19920;-94
2022/03/19 15:23:03;;;;;;;;;;;;;;;;;;5070266;28;19920;-90
2022/03/19 15:25:31;;;;;;;;;;;;;;;;;;5064760;28;19974;-95
2022/03/19 15:27:57;;;;;;;;;;;;;;;;;;5066443;28;19943;-94
2022/03/19 15:30:25;;;;;;;;;;;;;;;;;;5070375;28;20012;-95
2022/03/19 15:32:52;;;;;;;;;;;;;;;;;;5077444;28;19920;-91
2022/03/19 15:35:19;;;;;;;;;;;;;;;;;;5048742;28;19925;-92
2022/03/19 15:37:45;;;;;;;;;;;;;;;;;;5066700;28;20074;-95
2022/03/19 15:40:11;;;;;;;;;;;;;;;;;;5069116;28;19944;-96
2022/03/19 15:42:37;;;;;;;;;;;;;;;;;;5066185;28;19921;-93
2022/03/19 15:45:04;;;;;;;;;;;;;;;;;;5046938;28;20282;-95
2022/03/19 15:47:30;;;;;;;;;;;;;;;;;;5048165;28;19936;-93
2022/03/19 15:49:56;;;;;;;;;;;;;;;;;;5061067;28;19927;-95
2022/03/19 15:52:22;;;;;;;;;;;;;;;;;;5067320;28;19974;-92
2022/03/19 15:54:50;;;;;;;;;;;;;;;;;;5068767;28;19921;-96
2022/03/19 15:57:17;;;;;;;;;;;;;;;;;;5049150;28;20275;-96
2022/03/19 15:59:44;;;;;;;;;;;;;;;;;;5077076;22;20392;-96
2022/03/19 16:02:10;;;;;;;;;;;;;;;;;;5048219;28;20356;-95
2022/03/19 16:04:36;;;;;;;;;;;;;;;;;;5047022;28;20352;-95
2022/03/19 16:07:06;;;;;;;;;;;;;;;;;;5050572;28;20386;-96
2022/03/19 16:09:32;;;;;;;;;;;;;;;;;;5048230;28;20718;-94
2022/03/19 16:11:59;;;;;;;;;;;;;;;;;;5044133;28;20406;-93
2022/03/19 16:14:25;;;;;;;;;;;;;;;;;;5032440;28;20197;-92
2022/03/19 16:16:51;;;;;;;;;;;;;;;;;;5030238;28;19925;-93
2022/03/19 16:19:20;;;;;;;;;;;;;;;;;;5035069;28;19922;-94
2022/03/19 16:21:47;;;;;;;;;;;;;;;;;;5026238;28;20610;-94
2022/03/19 16:24:13;;;;;;;;;;;;;;;;;;5036190;28;19921;-93
2022/03/19 16:26:41;;;;;;;;;;;;;;;;;;5044629;28;19921;-92
2022/03/19 16:29:10;;;;;;;;;;;;;;;;;;5045416;28;19920;-93
2022/03/19 16:31:36;;;;;;;;;;;;;;;;;;5045733;28;20272;-94
2022/03/19 16:34:02;;;;;;;;;;;;;;;;;;5045489;28;20374;-92
2022/03/19 16:36:28;;;;;;;;;;;;;;;;;;5046534;28;20390;-93
2022/03/19 16:38:55;;;;;;;;;;;;;;;;;;5045063;28;20396;-94
2022/03/19 16:41:21;;;;;;;;;;;;;;;;;;5044989;28;20378;-95
2022/03/19 16:43:47;;;;;;;;;;;;;;;;;;5044178;28;20869;-92
2022/03/19 16:46:14;;;;;;;;;;;;;;;;;;5044148;28;20355;-95
2022/03/19 16:48:41;;;;;;;;;;;;;;;;;;5043930;28;20364;-93
2022/03/19 16:51:07;;;;;;;;;;;;;;;;;;5045852;28;20126;-90
2022/03/19 16:53:33;;;;;;;;;;;;;;;;;;5044387;28;19920;-93
2022/03/19 16:56:00;;;;;;;;;;;;;;;;;;5047014;28;19921;-96
2022/03/19 16:58:27;;;;;;;;;;;;;;;;;;5044341;28;19928;-93
2022/03/19 17:00:53;;;;;;;;;;;;;;;;;;5044186;28;19928;-94